createdAt,value
2022-08-09T00:00:00.046Z,8.10
2022-08-09T00:02:28.628Z,8.15
2022-08-09T00:05:02.993Z,9.02
2022-08-09T00:07:44.525Z,9.75
2022-08-09T00:10:18.045Z,9.02
2022-08-09T00:12:52.384Z,8.70
2022-08-09T00:15:20.518Z,7.65
2022-08-09T00:18:05.698Z,9.40
2022-08-09T00:20:37.827Z,7.97
2022-08-09T00:23:56.331Z,10.90
2022-08-09T00:25:56.075Z,9.63
2022-08-09T00:28:23.440Z,9.57
2022-08-09T00:30:54.094Z,7.93
2022-08-09T00:33:20.742Z,9.70
2022-08-09T00:36:07.626Z,9.65
2022-08-09T00:38:35.343Z,11.45
2022-08-09T00:41:05.337Z,12.40
2022-08-09T00:44:16.717Z,10.90
2022-08-09T00:46:37.039Z,9.52
2022-08-09T00:49:11.273Z,11.20
2022-08-09T00:51:54.252Z,8.60
2022-08-09T00:54:28.784Z,9.35
2022-08-09T00:57:01.668Z,9.23
2022-08-09T00:59:40.723Z,11.27
2022-08-09T01:02:15.627Z,8.63
2022-08-09T01:04:57.042Z,9.20
2022-08-09T01:07:38.088Z,11.30
2022-08-09T01:10:37.050Z,10.20
2022-08-09T01:13:16.850Z,9.57
2022-08-09T01:15:52.052Z,9.40
2022-08-09T01:18:30.171Z,10.00
2022-08-09T01:21:16.947Z,10.27
2022-08-09T01:24:02.294Z,10.68
2022-08-09T01:26:42.541Z,9.82
2022-08-09T01:29:15.396Z,11.45
2022-08-09T01:32:33.790Z,10.05
2022-08-09T01:34:34.132Z,13.18
2022-08-09T01:37:03.754Z,10.18
2022-08-09T01:39:35.760Z,10.27
2022-08-09T01:42:11.070Z,12.82
2022-08-09T01:44:41.198Z,10.10
2022-08-09T01:47:11.552Z,10.55
2022-08-09T01:49:39.863Z,10.55
2022-08-09T01:52:15.995Z,11.13
2022-08-09T01:54:50.565Z,10.63
2022-08-09T01:57:20.869Z,10.30
2022-08-09T01:59:52.568Z,11.07
2022-08-09T02:02:31.117Z,11.35
2022-08-09T02:08:39.841Z,12.20
2022-08-09T02:10:30.138Z,13.55
2022-08-09T02:13:01.067Z,11.07
2022-08-09T02:15:48.857Z,12.30
2022-08-09T02:18:19.370Z,11.18
2022-08-09T02:23:21.046Z,11.75
2022-08-09T02:25:55.916Z,12.70
2022-08-09T02:28:40.738Z,12.05
2022-08-09T02:31:28.196Z,10.65
2022-08-09T02:34:13.574Z,13.98
2022-08-09T02:36:54.356Z,13.90
2022-08-09T02:39:33.981Z,11.30
2022-08-09T02:42:16.829Z,13.32
2022-08-09T02:44:48.499Z,10.85
2022-08-09T02:47:18.511Z,10.95
2022-08-09T02:49:55.427Z,11.90
2022-08-09T02:52:39.705Z,12.82
2022-08-09T02:55:20.082Z,12.60
2022-08-09T02:58:00.287Z,11.77
2022-08-09T03:00:39.527Z,11.57
2022-08-09T03:03:37.245Z,10.82
2022-08-09T03:06:14.775Z,14.02
2022-08-09T03:08:44.964Z,13.65
2022-08-09T03:11:29.976Z,12.23
2022-08-09T03:14:04.369Z,13.23
2022-08-09T03:16:32.642Z,11.15
2022-08-09T03:19:02.042Z,10.25
2022-08-09T03:21:39.452Z,11.15
2022-08-09T03:24:06.578Z,10.93
2022-08-09T03:26:44.900Z,13.30
2022-08-09T03:29:22.595Z,13.18
2022-08-09T03:32:00.001Z,13.27
2022-08-09T03:34:27.892Z,14.98
2022-08-09T03:36:59.405Z,12.25
2022-08-09T03:39:28.845Z,14.48
2022-08-09T03:42:05.907Z,14.48
2022-08-09T03:44:33.713Z,12.20
2022-08-09T03:47:00.400Z,13.63
2022-08-09T03:49:32.916Z,10.90
2022-08-09T03:52:04.264Z,15.90
2022-08-09T03:54:34.664Z,13.55
2022-08-09T03:57:17.906Z,14.27
2022-08-09T03:59:54.751Z,14.48
2022-08-09T04:02:26.437Z,12.48
2022-08-09T04:05:00.944Z,13.75
2022-08-09T04:07:47.743Z,14.52
2022-08-09T04:10:20.455Z,13.32
2022-08-09T04:12:53.079Z,12.50
2022-08-09T04:15:39.032Z,14.70
2022-08-09T04:18:09.726Z,17.33
2022-08-09T04:20:44.755Z,11.70
2022-08-09T04:23:17.322Z,12.20
2022-08-09T04:25:49.834Z,13.60
2022-08-09T04:28:33.789Z,14.30
2022-08-09T04:31:09.597Z,12.35
2022-08-09T04:33:47.589Z,13.85
2022-08-09T04:36:23.374Z,14.35
2022-08-09T04:38:50.920Z,13.27
2022-08-09T04:41:18.991Z,14.20
2022-08-09T04:43:53.724Z,12.25
2022-08-09T04:46:37.601Z,11.65
2022-08-09T04:49:30.148Z,12.48
2022-08-09T04:52:07.364Z,12.57
2022-08-09T04:54:34.352Z,14.43
2022-08-09T04:57:01.049Z,15.63
2022-08-09T04:59:30.989Z,13.65
2022-08-09T05:01:57.830Z,15.93
2022-08-09T05:04:24.511Z,12.95
2022-08-09T05:06:58.619Z,12.80
2022-08-09T05:09:25.499Z,12.90
2022-08-09T05:12:11.086Z,14.15
2022-08-09T05:14:41.152Z,15.38
2022-08-09T05:17:15.238Z,13.13
2022-08-09T05:19:57.092Z,14.20
2022-08-09T05:22:33.294Z,13.25
2022-08-09T05:25:04.619Z,13.05
2022-08-09T05:27:31.398Z,14.15
2022-08-09T05:29:59.075Z,13.90
2022-08-09T05:32:26.247Z,12.55
2022-08-09T05:34:56.885Z,16.65
2022-08-09T05:37:23.857Z,11.60
2022-08-09T05:39:52.303Z,15.23
2022-08-09T05:42:21.438Z,18.45
2022-08-09T05:44:53.178Z,12.02
2022-08-09T05:47:24.487Z,13.02
2022-08-09T05:50:26.838Z,13.15
2022-08-09T05:52:41.854Z,13.43
2022-08-09T05:55:18.081Z,15.90
2022-08-09T05:57:55.232Z,15.25
2022-08-09T06:00:29.545Z,13.95
2022-08-09T06:03:01.558Z,11.50
2022-08-09T06:05:57.369Z,11.32
2022-08-09T06:08:19.686Z,12.77
2022-08-09T06:10:53.055Z,14.23
2022-08-09T06:13:20.473Z,14.30
2022-08-09T06:15:51.328Z,13.45
2022-08-09T06:18:24.065Z,13.43
2022-08-09T06:20:54.525Z,12.77
2022-08-09T06:23:57.224Z,12.45
2022-08-09T06:26:20.414Z,12.27
2022-08-09T06:28:59.636Z,12.48
2022-08-09T06:31:30.816Z,13.10
2022-08-09T06:33:58.401Z,12.30
2022-08-09T06:36:27.028Z,12.55
2022-08-09T06:38:54.623Z,12.77
2022-08-09T06:41:24.878Z,11.30
2022-08-09T06:44:14.282Z,10.98
2022-08-09T06:46:45.583Z,14.18
2022-08-09T06:49:12.666Z,12.65
2022-08-09T06:51:42.998Z,10.55
2022-08-09T06:54:14.876Z,13.20
2022-08-09T06:56:45.559Z,12.25
2022-08-09T07:00:55.692Z,11.63
2022-08-09T07:02:04.348Z,12.00
2022-08-09T07:04:31.829Z,9.95
2022-08-09T07:07:00.544Z,10.02
2022-08-09T07:09:56.507Z,10.95
2022-08-09T07:12:18.161Z,9.63
2022-08-09T07:14:51.444Z,13.00
2022-08-09T07:17:21.715Z,12.57
2022-08-09T07:19:51.029Z,11.68
2022-08-09T07:22:34.461Z,9.90
2022-08-09T07:25:05.188Z,11.13
2022-08-09T07:27:33.980Z,9.48
2022-08-09T07:30:02.431Z,11.07
2022-08-09T07:32:33.236Z,10.20
2022-08-09T07:35:11.427Z,8.88
2022-08-09T07:37:44.660Z,8.65
2022-08-09T07:40:17.032Z,8.23
2022-08-09T07:42:48.271Z,7.63
2022-08-09T07:45:23.004Z,8.95
2022-08-09T07:48:04.710Z,10.32
2022-08-09T07:50:34.595Z,7.97
2022-08-09T07:53:04.666Z,7.97
2022-08-09T07:56:02.915Z,8.32
2022-08-09T07:58:21.722Z,9.85
2022-08-09T08:00:55.798Z,7.32
2022-08-09T08:03:26.646Z,7.20
2022-08-09T08:05:57.934Z,9.25
2022-08-09T08:09:00.803Z,6.50
2022-08-09T08:12:09.419Z,7.72
2022-08-09T08:14:00.149Z,5.15
2022-08-09T08:16:29.983Z,5.32
2022-08-09T08:18:59.206Z,4.55
2022-08-09T08:21:26.630Z,6.28
2022-08-09T08:23:56.000Z,5.00
2022-08-09T08:26:26.519Z,5.50
2022-08-09T08:29:09.014Z,5.80
2022-08-09T08:31:39.427Z,5.20
2022-08-09T08:34:25.326Z,4.25
2022-08-09T08:36:52.511Z,7.97
2022-08-09T08:39:19.250Z,3.95
2022-08-09T08:41:51.614Z,3.65
2022-08-09T08:44:22.936Z,4.85
2022-08-09T08:47:03.278Z,3.05
2022-08-09T08:49:47.232Z,2.13
2022-08-09T08:55:09.494Z,3.92
2022-08-09T08:57:37.613Z,2.67
2022-08-09T09:00:17.236Z,4.47
2022-08-09T09:02:53.269Z,3.47
2022-08-09T09:05:58.152Z,3.40
2022-08-09T09:08:29.742Z,5.28
2022-08-09T09:11:01.800Z,4.82
2022-08-09T09:13:42.226Z,3.55
2022-08-09T09:16:16.471Z,8.07
2022-08-09T09:18:51.934Z,5.53
2022-08-09T09:21:26.539Z,3.90
2022-08-09T09:23:58.234Z,2.45
2022-08-09T09:26:26.078Z,6.43
2022-08-09T09:29:04.525Z,3.58
2022-08-09T09:32:03.861Z,4.18
2022-08-09T09:34:25.262Z,3.97
2022-08-09T09:36:57.102Z,6.35
2022-08-09T09:39:55.055Z,5.97
2022-08-09T09:42:27.577Z,3.22
2022-08-09T09:44:59.355Z,3.47
2022-08-09T09:47:28.336Z,3.55
2022-08-09T09:50:15.794Z,4.15
2022-08-09T09:52:56.159Z,4.85
2022-08-09T09:55:32.573Z,4.57
2022-08-09T09:58:18.800Z,3.50
2022-08-09T10:00:58.859Z,2.83
2022-08-09T10:03:58.220Z,2.50
2022-08-09T10:06:43.511Z,3.08
2022-08-09T10:09:22.372Z,4.70
2022-08-09T10:12:14.376Z,2.42
2022-08-09T10:14:49.358Z,2.70
2022-08-09T10:17:39.701Z,4.45
2022-08-09T10:20:27.215Z,2.60
2022-08-09T10:23:17.244Z,2.90
2022-08-09T10:26:06.881Z,5.60
2022-08-09T10:28:34.233Z,4.78
2022-08-09T10:34:09.774Z,1.88
2022-08-09T10:36:36.964Z,3.55
2022-08-09T10:39:05.942Z,1.80
2022-08-09T10:41:43.076Z,1.30
2022-08-09T10:44:10.306Z,2.38
2022-08-09T10:47:01.130Z,1.23
2022-08-09T10:49:51.446Z,2.60
2022-08-09T10:52:49.919Z,1.20
2022-08-09T10:55:21.346Z,2.25
2022-08-09T10:57:51.813Z,2.25
2022-08-09T11:00:51.158Z,3.45
2022-08-09T11:03:47.106Z,2.42
2022-08-09T11:06:16.034Z,1.90
2022-08-09T11:08:47.985Z,1.58
2022-08-09T11:11:19.202Z,3.58
2022-08-09T11:13:49.806Z,2.72
2022-08-09T11:16:39.140Z,2.00
2022-08-09T11:19:10.560Z,2.53
2022-08-09T11:21:57.315Z,1.52
2022-08-09T11:25:14.707Z,2.40
2022-08-09T11:28:03.789Z,3.80
2022-08-09T11:30:33.798Z,2.58
2022-08-09T11:33:19.668Z,1.52
2022-08-09T11:35:57.792Z,1.85
2022-08-09T11:38:33.053Z,2.67
2022-08-09T11:41:38.327Z,1.20
2022-08-09T11:44:08.064Z,2.50
2022-08-09T11:46:57.733Z,2.88
2022-08-09T11:50:56.583Z,4.60
2022-08-09T11:53:15.731Z,2.63
2022-08-09T11:55:52.201Z,1.85
2022-08-09T11:58:30.479Z,2.78
2022-08-09T12:01:15.507Z,2.50
2022-08-09T12:04:00.714Z,2.03
2022-08-09T12:06:32.007Z,2.75
2022-08-09T12:09:01.653Z,2.40
2022-08-09T12:11:29.105Z,2.08
2022-08-09T12:14:08.565Z,1.80
2022-08-09T12:16:41.573Z,1.75
2022-08-09T12:19:12.943Z,2.30
2022-08-09T12:21:50.820Z,1.55
2022-08-09T12:24:25.935Z,2.15
2022-08-09T12:29:10.986Z,1.77
2022-08-09T12:30:00.049Z,2.50
2022-08-09T12:32:31.307Z,4.32
2022-08-09T12:35:04.585Z,3.33
2022-08-09T12:37:33.457Z,1.65
2022-08-09T12:40:11.814Z,3.40
2022-08-09T12:42:44.390Z,2.25
2022-08-09T12:45:34.237Z,3.63
2022-08-09T12:47:58.763Z,1.70
2022-08-09T12:50:25.635Z,2.28
2022-08-09T12:53:17.753Z,2.00
2022-08-09T12:56:12.120Z,1.60
2022-08-09T12:58:27.823Z,2.17
2022-08-09T13:00:55.704Z,1.83
2022-08-09T13:03:54.009Z,3.40
2022-08-09T13:06:49.411Z,1.98
2022-08-09T13:09:24.386Z,1.70
2022-08-09T13:12:01.828Z,2.08
2022-08-09T13:14:42.701Z,1.73
2022-08-09T13:17:21.823Z,2.08
2022-08-09T13:20:14.387Z,2.15
2022-08-09T13:23:04.905Z,9.07
2022-08-09T13:25:42.962Z,2.17
2022-08-09T13:28:34.486Z,2.35
2022-08-09T13:32:15.577Z,2.28
2022-08-09T13:33:58.753Z,2.38
2022-08-09T13:36:40.847Z,2.85
2022-08-09T13:41:17.364Z,2.90
2022-08-09T13:42:02.424Z,2.72
2022-08-09T13:44:30.405Z,2.35
2022-08-09T13:47:27.568Z,2.92
2022-08-09T13:49:58.187Z,3.70
2022-08-09T13:52:29.645Z,2.70
2022-08-09T13:55:00.802Z,3.28
2022-08-09T13:57:39.548Z,1.98
2022-08-09T14:00:13.281Z,2.83
2022-08-09T14:03:03.485Z,2.22
2022-08-09T14:06:00.715Z,4.43
2022-08-09T14:08:17.447Z,3.17
2022-08-09T14:10:52.568Z,2.38
2022-08-09T14:14:15.405Z,1.42
2022-08-09T14:16:15.139Z,3.90
2022-08-09T14:18:48.904Z,4.50
2022-08-09T14:21:18.315Z,5.00
2022-08-09T14:23:55.144Z,3.17
2022-08-09T14:26:31.659Z,2.70
2022-08-09T14:30:15.170Z,1.48
2022-08-09T14:31:55.062Z,3.15
2022-08-09T14:34:30.911Z,3.50
2022-08-09T14:37:06.014Z,3.05
2022-08-09T14:39:46.062Z,2.70
2022-08-09T14:42:30.776Z,3.03
2022-08-09T14:46:56.646Z,3.75
2022-08-09T14:47:58.774Z,3.42
2022-08-09T14:50:28.581Z,2.47
2022-08-09T14:52:55.492Z,2.40
2022-08-09T14:55:22.305Z,2.28
2022-08-09T14:57:49.653Z,3.00
2022-08-09T15:00:17.195Z,2.55
2022-08-09T15:02:47.179Z,2.45
2022-08-09T15:05:16.113Z,2.67
2022-08-09T15:07:43.802Z,3.58
2022-08-09T15:10:14.538Z,3.67
2022-08-09T15:12:44.995Z,2.90
2022-08-09T15:15:13.031Z,3.42
2022-08-09T15:17:42.207Z,3.53
2022-08-09T15:20:18.790Z,1.80
2022-08-09T15:23:56.012Z,1.60
2022-08-09T15:25:52.680Z,2.17
2022-08-09T15:28:26.173Z,3.63
2022-08-09T15:31:03.106Z,1.60
2022-08-09T15:34:17.738Z,2.95
2022-08-09T15:36:28.706Z,2.08
2022-08-09T15:41:31.344Z,4.20
2022-08-09T15:44:02.748Z,3.20
2022-08-09T15:46:34.515Z,2.40
2022-08-09T15:49:21.986Z,4.13
2022-08-09T15:52:03.288Z,4.68
2022-08-09T15:54:44.349Z,4.47
2022-08-09T15:57:13.645Z,3.92
2022-08-09T15:59:40.583Z,3.53
2022-08-09T16:02:09.004Z,3.38
2022-08-09T16:04:40.139Z,5.32
2022-08-09T16:07:11.987Z,3.08
2022-08-09T16:09:51.497Z,2.63
2022-08-09T16:12:31.003Z,4.18
2022-08-09T16:14:58.061Z,3.80
2022-08-09T16:17:28.981Z,4.25
2022-08-09T16:20:04.039Z,2.90
2022-08-09T16:22:32.294Z,2.30
2022-08-09T16:25:01.466Z,5.32
2022-08-09T16:27:29.689Z,5.82
2022-08-09T16:30:00.702Z,4.35
2022-08-09T16:32:53.221Z,3.25
2022-08-09T16:35:57.441Z,2.70
2022-08-09T16:38:09.796Z,3.80
2022-08-09T16:40:40.720Z,4.03
2022-08-09T16:43:08.200Z,3.40
2022-08-09T16:45:35.378Z,3.42
2022-08-09T16:48:38.470Z,3.78
2022-08-09T16:50:59.702Z,3.20
2022-08-09T16:53:36.119Z,3.63
2022-08-09T16:56:09.744Z,3.42
2022-08-09T16:58:39.754Z,3.92
2022-08-09T17:03:37.500Z,3.50
2022-08-09T17:06:28.348Z,3.20
2022-08-09T17:08:59.958Z,2.80
2022-08-09T17:11:41.104Z,3.00
2022-08-09T17:14:25.404Z,4.03
2022-08-09T17:16:53.686Z,3.53
2022-08-09T17:19:20.984Z,2.60
2022-08-09T17:21:47.788Z,4.07
2022-08-09T17:24:30.624Z,3.47
2022-08-09T17:26:58.327Z,2.95
2022-08-09T17:29:31.596Z,2.33
2022-08-09T17:32:05.115Z,2.28
2022-08-09T17:35:04.447Z,4.60
2022-08-09T17:37:21.288Z,2.92
2022-08-09T17:39:53.238Z,2.85
2022-08-09T17:42:40.840Z,3.83
2022-08-09T17:45:15.793Z,4.65
2022-08-09T17:47:55.624Z,3.88
2022-08-09T17:50:24.905Z,4.30
2022-08-09T17:53:19.765Z,1.88
2022-08-09T17:55:55.308Z,2.88
2022-08-09T17:58:26.920Z,3.28
2022-08-09T18:00:59.397Z,3.08
2022-08-09T18:03:30.479Z,3.97
2022-08-09T18:06:00.735Z,3.03
2022-08-09T18:08:28.129Z,2.83
2022-08-09T18:11:01.706Z,5.55
2022-08-09T18:13:42.933Z,5.35
2022-08-09T18:16:16.983Z,2.80
2022-08-09T18:18:57.318Z,2.40
2022-08-09T18:21:26.367Z,3.03
2022-08-09T18:24:11.191Z,4.32
2022-08-09T18:26:46.805Z,3.80
2022-08-09T18:30:42.267Z,3.28
2022-08-09T18:32:05.623Z,6.43
2022-08-09T18:34:35.121Z,2.58
2022-08-09T18:37:10.355Z,3.78
2022-08-09T18:39:53.179Z,4.30
2022-08-09T18:42:29.248Z,4.90
2022-08-09T18:44:56.944Z,3.03
2022-08-09T18:47:27.617Z,2.50
2022-08-09T18:50:02.963Z,2.40
2022-08-09T18:52:35.036Z,2.65
2022-08-09T18:55:02.808Z,2.88
2022-08-09T18:57:42.770Z,1.80
2022-08-09T19:00:11.814Z,3.95
2022-08-09T19:02:45.826Z,2.75
2022-08-09T19:05:28.877Z,2.83
2022-08-09T19:08:10.193Z,3.97
2022-08-09T19:13:18.564Z,2.15
2022-08-09T19:15:52.106Z,2.80
2022-08-09T19:18:36.538Z,3.38
2022-08-09T19:21:09.182Z,3.08
2022-08-09T19:24:37.482Z,2.67
2022-08-09T19:26:35.256Z,2.72
2022-08-09T19:29:15.502Z,4.47
2022-08-09T19:31:46.458Z,3.33
2022-08-09T19:34:21.165Z,2.83
2022-08-09T19:36:53.984Z,3.50
2022-08-09T19:39:43.988Z,2.38
2022-08-09T19:42:09.124Z,4.00
2022-08-09T19:44:41.617Z,4.13
2022-08-09T19:47:08.881Z,2.85
2022-08-09T19:50:08.425Z,4.00
2022-08-09T19:52:26.389Z,4.15
2022-08-09T19:54:53.095Z,5.88
2022-08-09T19:57:19.766Z,5.80
2022-08-09T20:00:01.909Z,4.47
2022-08-09T20:04:08.276Z,4.32
2022-08-09T20:05:24.864Z,3.40
2022-08-09T20:07:59.299Z,4.05
2022-08-09T20:10:34.391Z,3.97
2022-08-09T20:13:04.661Z,5.25
2022-08-09T20:16:34.715Z,4.70
2022-08-09T20:18:18.801Z,3.42
2022-08-09T20:20:46.770Z,5.18
2022-08-09T20:23:13.427Z,5.38
2022-08-09T20:25:52.584Z,3.97
2022-08-09T20:28:34.162Z,4.68
2022-08-09T20:31:05.216Z,4.03
2022-08-09T20:33:40.967Z,4.85
2022-08-09T20:36:10.947Z,5.03
2022-08-09T20:39:17.144Z,2.58
2022-08-09T20:41:35.530Z,4.05
2022-08-09T20:44:10.535Z,3.42
2022-08-09T20:46:43.156Z,3.78
2022-08-09T20:49:13.773Z,4.90
2022-08-09T20:51:43.957Z,4.63
2022-08-09T20:54:17.164Z,4.10
2022-08-09T20:56:49.692Z,5.00
2022-08-09T20:59:50.264Z,6.72
2022-08-09T21:02:10.514Z,5.22
2022-08-09T21:05:54.123Z,3.08
2022-08-09T21:07:38.924Z,4.68
2022-08-09T21:10:08.075Z,5.93
2022-08-09T21:12:37.694Z,4.68
2022-08-09T21:15:05.508Z,5.25
2022-08-09T21:18:21.908Z,4.30
2022-08-09T21:20:26.811Z,3.72
2022-08-09T21:22:57.069Z,4.80
2022-08-09T21:25:44.105Z,4.07
2022-08-09T21:28:33.779Z,3.10
2022-08-09T21:31:19.527Z,4.22
2022-08-09T21:33:52.545Z,3.30
2022-08-09T21:36:25.795Z,4.20
2022-08-09T21:38:57.705Z,4.70
2022-08-09T21:42:04.739Z,3.42
2022-08-09T21:44:34.124Z,3.75
2022-08-09T21:47:07.390Z,5.10
2022-08-09T21:49:39.553Z,3.17
2022-08-09T21:54:41.878Z,2.38
2022-08-09T21:57:37.236Z,4.15
2022-08-09T21:59:59.548Z,4.22
2022-08-09T22:02:36.009Z,2.80
2022-08-09T22:05:16.711Z,3.28
2022-08-09T22:07:52.110Z,3.60
2022-08-09T22:10:22.963Z,3.45
2022-08-09T22:12:50.661Z,5.13
2022-08-09T22:15:19.033Z,2.55
2022-08-09T22:17:47.636Z,3.42
2022-08-09T22:20:16.990Z,3.53
2022-08-09T22:22:49.100Z,3.33
2022-08-09T22:26:08.005Z,4.28
2022-08-09T22:28:07.224Z,3.92
2022-08-09T22:30:34.145Z,3.03
2022-08-09T22:33:01.558Z,2.45
2022-08-09T22:36:02.120Z,2.55
2022-08-09T22:38:16.392Z,4.85
2022-08-09T22:40:49.041Z,3.05
2022-08-09T22:44:01.523Z,3.17
2022-08-09T22:48:16.725Z,2.60
2022-08-09T22:49:01.953Z,4.82
2022-08-09T22:51:38.020Z,3.42
2022-08-09T22:54:07.994Z,3.83
2022-08-09T22:56:38.194Z,2.67
2022-08-09T22:59:57.215Z,4.43
2022-08-09T23:01:55.892Z,3.00
2022-08-09T23:04:23.236Z,2.63
2022-08-09T23:07:13.923Z,2.83
2022-08-09T23:09:43.049Z,3.22
2022-08-09T23:12:09.791Z,3.38
2022-08-09T23:14:41.847Z,3.17
2022-08-09T23:20:00.776Z,3.65
2022-08-09T23:22:23.151Z,3.75
2022-08-09T23:24:50.039Z,3.05
2022-08-09T23:27:16.713Z,3.30
2022-08-09T23:29:43.543Z,4.82
2022-08-09T23:32:10.659Z,3.17
2022-08-09T23:34:37.647Z,3.88
2022-08-09T23:37:04.945Z,4.07
2022-08-09T23:39:32.253Z,5.60
2022-08-09T23:41:59.198Z,3.38
2022-08-09T23:44:25.973Z,2.78
2022-08-09T23:46:57.358Z,3.33
2022-08-09T23:49:25.585Z,3.40
2022-08-09T23:51:53.573Z,2.85
2022-08-09T23:54:21.251Z,4.35
2022-08-09T23:56:56.246Z,4.07
2022-08-09T23:59:25.718Z,3.08
